sensor_id;sensor_type;location;lat;lon;timestamp;P1;durP1;ratioP1;P2;durP2;ratioP2
12383;SDS011;6256;63.808;20.336;2023-08-17T00:01:46;3.60;;;0.73;;
12383;SDS011;6256;63.808;20.336;2023-08-17T00:04:12;1.05;;;0.60;;
12383;SDS011;6256;63.808;20.336;2023-08-17T00:06:38;0.43;;;0.43;;
12383;SDS011;6256;63.808;20.336;2023-08-17T00:09:03;0.40;;;0.40;;
12383;SDS011;6256;63.808;20.336;2023-08-17T00:11:29;0.90;;;0.50;;
12383;SDS011;6256;63.808;20.336;2023-08-17T00:13:55;0.52;;;0.52;;
12383;SDS011;6256;63.808;20.336;2023-08-17T00:16:21;1.27;;;0.40;;
12383;SDS011;6256;63.808;20.336;2023-08-17T00:18:48;0.50;;;0.50;;
12383;SDS011;6256;63.808;20.336;2023-08-17T00:21:14;0.50;;;0.50;;
12383;SDS011;6256;63.808;20.336;2023-08-17T00:23:39;1.75;;;0.65;;
12383;SDS011;6256;63.808;20.336;2023-08-17T00:26:05;0.50;;;0.50;;
12383;SDS011;6256;63.808;20.336;2023-08-17T00:28:31;1.08;;;0.43;;
12383;SDS011;6256;63.808;20.336;2023-08-17T00:30:57;1.13;;;0.40;;
12383;SDS011;6256;63.808;20.336;2023-08-17T00:33:24;0.40;;;0.40;;
12383;SDS011;6256;63.808;20.336;2023-08-17T00:35:50;0.43;;;0.43;;
12383;SDS011;6256;63.808;20.336;2023-08-17T00:38:15;0.60;;;0.50;;
12383;SDS011;6256;63.808;20.336;2023-08-17T00:40:41;0.77;;;0.50;;
12383;SDS011;6256;63.808;20.336;2023-08-17T00:43:07;0.60;;;0.60;;
12383;SDS011;6256;63.808;20.336;2023-08-17T00:45:33;1.77;;;0.47;;
12383;SDS011;6256;63.808;20.336;2023-08-17T00:47:59;0.40;;;0.40;;
12383;SDS011;6256;63.808;20.336;2023-08-17T00:50:25;0.40;;;0.40;;
12383;SDS011;6256;63.808;20.336;2023-08-17T00:52:52;0.70;;;0.60;;
12383;SDS011;6256;63.808;20.336;2023-08-17T00:55:19;0.43;;;0.43;;
12383;SDS011;6256;63.808;20.336;2023-08-17T00:57:45;0.47;;;0.47;;
12383;SDS011;6256;63.808;20.336;2023-08-17T01:00:12;1.77;;;0.70;;
12383;SDS011;6256;63.808;20.336;2023-08-17T01:02:38;1.77;;;0.85;;
12383;SDS011;6256;63.808;20.336;2023-08-17T01:05:08;0.60;;;0.60;;
12383;SDS011;6256;63.808;20.336;2023-08-17T01:07:34;0.50;;;0.50;;
12383;SDS011;6256;63.808;20.336;2023-08-17T01:10:00;0.50;;;0.50;;
12383;SDS011;6256;63.808;20.336;2023-08-17T01:14:56;1.02;;;0.60;;
12383;SDS011;6256;63.808;20.336;2023-08-17T01:18:21;0.60;;;0.60;;
12383;SDS011;6256;63.808;20.336;2023-08-17T01:20:44;0.60;;;0.60;;
12383;SDS011;6256;63.808;20.336;2023-08-17T01:23:11;0.80;;;0.80;;
12383;SDS011;6256;63.808;20.336;2023-08-17T01:25:37;1.98;;;0.80;;
12383;SDS011;6256;63.808;20.336;2023-08-17T01:28:03;4.28;;;0.82;;
12383;SDS011;6256;63.808;20.336;2023-08-17T01:30:30;0.70;;;0.70;;
12383;SDS011;6256;63.808;20.336;2023-08-17T01:33:08;1.80;;;0.68;;
12383;SDS011;6256;63.808;20.336;2023-08-17T01:35:44;0.82;;;0.82;;
12383;SDS011;6256;63.808;20.336;2023-08-17T01:38:17;1.05;;;0.95;;
12383;SDS011;6256;63.808;20.336;2023-08-17T01:40:45;3.10;;;0.93;;
12383;SDS011;6256;63.808;20.336;2023-08-17T01:43:14;1.00;;;0.90;;
12383;SDS011;6256;63.808;20.336;2023-08-17T01:45:41;0.80;;;0.80;;
12383;SDS011;6256;63.808;20.336;2023-08-17T01:48:07;1.08;;;0.98;;
12383;SDS011;6256;63.808;20.336;2023-08-17T01:50:33;2.67;;;1.40;;
12383;SDS011;6256;63.808;20.336;2023-08-17T01:52:58;1.50;;;0.98;;
12383;SDS011;6256;63.808;20.336;2023-08-17T01:55:24;0.82;;;0.82;;
12383;SDS011;6256;63.808;20.336;2023-08-17T01:57:50;2.78;;;1.08;;
12383;SDS011;6256;63.808;20.336;2023-08-17T02:00:16;1.10;;;1.00;;
12383;SDS011;6256;63.808;20.336;2023-08-17T02:02:41;1.02;;;0.98;;
12383;SDS011;6256;63.808;20.336;2023-08-17T02:05:07;1.95;;;1.52;;
12383;SDS011;6256;63.808;20.336;2023-08-17T02:07:33;1.50;;;1.08;;
12383;SDS011;6256;63.808;20.336;2023-08-17T02:09:59;1.45;;;1.30;;
12383;SDS011;6256;63.808;20.336;2023-08-17T02:12:25;1.35;;;1.25;;
12383;SDS011;6256;63.808;20.336;2023-08-17T02:14:50;2.30;;;1.30;;
12383;SDS011;6256;63.808;20.336;2023-08-17T02:17:16;3.63;;;1.40;;
12383;SDS011;6256;63.808;20.336;2023-08-17T02:19:44;0.90;;;0.90;;
12383;SDS011;6256;63.808;20.336;2023-08-17T02:22:12;1.50;;;1.40;;
12383;SDS011;6256;63.808;20.336;2023-08-17T02:24:38;2.60;;;1.50;;
12383;SDS011;6256;63.808;20.336;2023-08-17T02:27:04;1.73;;;1.42;;
12383;SDS011;6256;63.808;20.336;2023-08-17T02:29:29;1.30;;;1.20;;
12383;SDS011;6256;63.808;20.336;2023-08-17T02:31:55;1.25;;;1.17;;
12383;SDS011;6256;63.808;20.336;2023-08-17T02:34:21;1.60;;;1.50;;
12383;SDS011;6256;63.808;20.336;2023-08-17T02:36:46;2.60;;;1.40;;
12383;SDS011;6256;63.808;20.336;2023-08-17T02:39:12;1.70;;;1.50;;
12383;SDS011;6256;63.808;20.336;2023-08-17T02:41:38;1.63;;;1.40;;
12383;SDS011;6256;63.808;20.336;2023-08-17T02:44:04;2.10;;;1.80;;
12383;SDS011;6256;63.808;20.336;2023-08-17T02:46:30;3.08;;;2.22;;
12383;SDS011;6256;63.808;20.336;2023-08-17T02:48:56;2.85;;;1.52;;
12383;SDS011;6256;63.808;20.336;2023-08-17T02:51:21;2.25;;;1.75;;
12383;SDS011;6256;63.808;20.336;2023-08-17T02:53:47;2.83;;;1.70;;
12383;SDS011;6256;63.808;20.336;2023-08-17T02:56:13;2.65;;;1.80;;
12383;SDS011;6256;63.808;20.336;2023-08-17T02:58:39;2.38;;;1.70;;
12383;SDS011;6256;63.808;20.336;2023-08-17T03:01:08;2.10;;;1.88;;
12383;SDS011;6256;63.808;20.336;2023-08-17T03:03:34;2.30;;;1.52;;
12383;SDS011;6256;63.808;20.336;2023-08-17T03:06:00;3.13;;;1.73;;
12383;SDS011;6256;63.808;20.336;2023-08-17T03:08:27;2.88;;;1.75;;
12383;SDS011;6256;63.808;20.336;2023-08-17T03:10:52;2.47;;;2.00;;
12383;SDS011;6256;63.808;20.336;2023-08-17T03:13:18;2.33;;;1.95;;
12383;SDS011;6256;63.808;20.336;2023-08-17T03:15:44;2.35;;;2.15;;
12383;SDS011;6256;63.808;20.336;2023-08-17T03:18:09;1.83;;;1.60;;
12383;SDS011;6256;63.808;20.336;2023-08-17T03:20:35;1.88;;;1.67;;
12383;SDS011;6256;63.808;20.336;2023-08-17T03:23:01;1.92;;;1.60;;
12383;SDS011;6256;63.808;20.336;2023-08-17T03:25:31;1.70;;;1.50;;
12383;SDS011;6256;63.808;20.336;2023-08-17T03:27:56;1.67;;;1.57;;
12383;SDS011;6256;63.808;20.336;2023-08-17T03:30:22;4.60;;;2.10;;
12383;SDS011;6256;63.808;20.336;2023-08-17T03:32:48;2.60;;;1.80;;
12383;SDS011;6256;63.808;20.336;2023-08-17T03:35:13;3.45;;;2.30;;
12383;SDS011;6256;63.808;20.336;2023-08-17T03:37:39;4.75;;;2.25;;
12383;SDS011;6256;63.808;20.336;2023-08-17T03:40:05;10.35;;;2.40;;
12383;SDS011;6256;63.808;20.336;2023-08-17T03:42:31;2.20;;;2.00;;
12383;SDS011;6256;63.808;20.336;2023-08-17T03:44:57;2.35;;;1.85;;
12383;SDS011;6256;63.808;20.336;2023-08-17T03:47:23;4.47;;;2.17;;
12383;SDS011;6256;63.808;20.336;2023-08-17T03:49:51;5.53;;;2.83;;
12383;SDS011;6256;63.808;20.336;2023-08-17T03:52:17;2.53;;;2.33;;
12383;SDS011;6256;63.808;20.336;2023-08-17T03:54:43;2.65;;;2.30;;
12383;SDS011;6256;63.808;20.336;2023-08-17T03:57:08;2.80;;;2.15;;
12383;SDS011;6256;63.808;20.336;2023-08-17T03:59:34;2.22;;;2.03;;
12383;SDS011;6256;63.808;20.336;2023-08-17T04:02:00;3.10;;;1.88;;
12383;SDS011;6256;63.808;20.336;2023-08-17T04:04:25;4.15;;;1.90;;
12383;SDS011;6256;63.808;20.336;2023-08-17T04:06:52;2.78;;;1.90;;
12383;SDS011;6256;63.808;20.336;2023-08-17T04:09:18;1.90;;;1.60;;
12383;SDS011;6256;63.808;20.336;2023-08-17T04:11:44;1.85;;;1.70;;
12383;SDS011;6256;63.808;20.336;2023-08-17T04:14:10;2.00;;;1.75;;
12383;SDS011;6256;63.808;20.336;2023-08-17T04:16:35;2.25;;;1.70;;
12383;SDS011;6256;63.808;20.336;2023-08-17T04:19:01;3.72;;;1.80;;
12383;SDS011;6256;63.808;20.336;2023-08-17T04:21:27;3.08;;;1.67;;
12383;SDS011;6256;63.808;20.336;2023-08-17T04:23:52;2.97;;;1.95;;
12383;SDS011;6256;63.808;20.336;2023-08-17T04:26:18;2.63;;;1.70;;
12383;SDS011;6256;63.808;20.336;2023-08-17T04:28:44;1.63;;;1.52;;
12383;SDS011;6256;63.808;20.336;2023-08-17T04:31:09;6.10;;;2.08;;
12383;SDS011;6256;63.808;20.336;2023-08-17T04:33:35;1.60;;;1.50;;
12383;SDS011;6256;63.808;20.336;2023-08-17T04:36:01;1.80;;;1.70;;
12383;SDS011;6256;63.808;20.336;2023-08-17T04:38:27;2.47;;;1.63;;
12383;SDS011;6256;63.808;20.336;2023-08-17T04:40:52;3.28;;;1.77;;
12383;SDS011;6256;63.808;20.336;2023-08-17T04:43:18;2.67;;;1.95;;
12383;SDS011;6256;63.808;20.336;2023-08-17T04:45:44;1.83;;;1.70;;
12383;SDS011;6256;63.808;20.336;2023-08-17T04:48:12;1.90;;;1.58;;
12383;SDS011;6256;63.808;20.336;2023-08-17T04:50:38;1.63;;;1.52;;
12383;SDS011;6256;63.808;20.336;2023-08-17T04:53:04;2.60;;;1.52;;
12383;SDS011;6256;63.808;20.336;2023-08-17T04:55:30;1.67;;;1.50;;
12383;SDS011;6256;63.808;20.336;2023-08-17T04:57:57;1.50;;;1.40;;
12383;SDS011;6256;63.808;20.336;2023-08-17T05:00:23;1.70;;;1.48;;
12383;SDS011;6256;63.808;20.336;2023-08-17T05:02:54;2.70;;;1.35;;
12383;SDS011;6256;63.808;20.336;2023-08-17T05:05:22;1.67;;;1.58;;
12383;SDS011;6256;63.808;20.336;2023-08-17T05:07:48;1.30;;;1.20;;
12383;SDS011;6256;63.808;20.336;2023-08-17T05:10:14;1.60;;;1.50;;
12383;SDS011;6256;63.808;20.336;2023-08-17T05:12:40;2.13;;;1.80;;
12383;SDS011;6256;63.808;20.336;2023-08-17T05:15:06;2.42;;;1.60;;
12383;SDS011;6256;63.808;20.336;2023-08-17T05:17:32;3.28;;;1.60;;
12383;SDS011;6256;63.808;20.336;2023-08-17T05:19:58;2.28;;;1.40;;
12383;SDS011;6256;63.808;20.336;2023-08-17T05:22:23;1.92;;;1.40;;
12383;SDS011;6256;63.808;20.336;2023-08-17T05:24:49;3.13;;;1.50;;
12383;SDS011;6256;63.808;20.336;2023-08-17T05:27:15;2.45;;;1.40;;
12383;SDS011;6256;63.808;20.336;2023-08-17T05:29:40;1.50;;;1.40;;
12383;SDS011;6256;63.808;20.336;2023-08-17T05:32:06;1.27;;;1.15;;
12383;SDS011;6256;63.808;20.336;2023-08-17T05:34:32;1.73;;;1.50;;
12383;SDS011;6256;63.808;20.336;2023-08-17T05:36:57;10.75;;;1.40;;
12383;SDS011;6256;63.808;20.336;2023-08-17T05:39:23;1.88;;;1.30;;
12383;SDS011;6256;63.808;20.336;2023-08-17T05:41:49;1.70;;;1.00;;
12383;SDS011;6256;63.808;20.336;2023-08-17T05:44:15;1.65;;;1.20;;
12383;SDS011;6256;63.808;20.336;2023-08-17T05:46:41;1.13;;;1.02;;
12383;SDS011;6256;63.808;20.336;2023-08-17T05:49:07;3.15;;;1.40;;
12383;SDS011;6256;63.808;20.336;2023-08-17T05:51:32;1.40;;;1.30;;
12383;SDS011;6256;63.808;20.336;2023-08-17T05:54:01;1.48;;;1.38;;
12383;SDS011;6256;63.808;20.336;2023-08-17T05:56:31;1.67;;;1.15;;
12383;SDS011;6256;63.808;20.336;2023-08-17T05:58:57;1.48;;;1.10;;
12383;SDS011;6256;63.808;20.336;2023-08-17T06:01:22;3.60;;;1.25;;
12383;SDS011;6256;63.808;20.336;2023-08-17T06:03:48;1.40;;;1.10;;
12383;SDS011;6256;63.808;20.336;2023-08-17T06:06:14;1.02;;;0.95;;
12383;SDS011;6256;63.808;20.336;2023-08-17T06:08:40;1.13;;;1.02;;
12383;SDS011;6256;63.808;20.336;2023-08-17T06:11:06;1.95;;;1.10;;
12383;SDS011;6256;63.808;20.336;2023-08-17T06:13:31;1.23;;;0.98;;
12383;SDS011;6256;63.808;20.336;2023-08-17T06:15:57;1.02;;;1.00;;
12383;SDS011;6256;63.808;20.336;2023-08-17T06:18:23;1.35;;;1.13;;
12383;SDS011;6256;63.808;20.336;2023-08-17T06:20:48;2.78;;;1.30;;
12383;SDS011;6256;63.808;20.336;2023-08-17T06:23:17;1.20;;;1.10;;
12383;SDS011;6256;63.808;20.336;2023-08-17T06:25:43;2.28;;;1.20;;
12383;SDS011;6256;63.808;20.336;2023-08-17T06:28:08;0.90;;;0.90;;
12383;SDS011;6256;63.808;20.336;2023-08-17T06:30:34;1.30;;;1.20;;
12383;SDS011;6256;63.808;20.336;2023-08-17T06:32:59;1.40;;;1.30;;
12383;SDS011;6256;63.808;20.336;2023-08-17T06:35:25;1.13;;;1.02;;
12383;SDS011;6256;63.808;20.336;2023-08-17T06:37:51;1.55;;;1.00;;
12383;SDS011;6256;63.808;20.336;2023-08-17T06:40:18;1.00;;;1.00;;
12383;SDS011;6256;63.808;20.336;2023-08-17T06:42:44;1.25;;;1.15;;
12383;SDS011;6256;63.808;20.336;2023-08-17T06:45:10;0.90;;;0.88;;
12383;SDS011;6256;63.808;20.336;2023-08-17T06:47:36;2.13;;;1.05;;
12383;SDS011;6256;63.808;20.336;2023-08-17T06:50:01;3.42;;;1.05;;
12383;SDS011;6256;63.808;20.336;2023-08-17T06:52:28;2.35;;;0.90;;
12383;SDS011;6256;63.808;20.336;2023-08-17T06:54:54;2.40;;;1.20;;
12383;SDS011;6256;63.808;20.336;2023-08-17T06:57:19;0.90;;;0.90;;
12383;SDS011;6256;63.808;20.336;2023-08-17T06:59:46;0.85;;;0.85;;
12383;SDS011;6256;63.808;20.336;2023-08-17T07:02:12;0.93;;;0.90;;
12383;SDS011;6256;63.808;20.336;2023-08-17T07:04:38;0.95;;;0.90;;
12383;SDS011;6256;63.808;20.336;2023-08-17T07:07:04;1.05;;;0.95;;
12383;SDS011;6256;63.808;20.336;2023-08-17T07:09:29;1.48;;;1.33;;
12383;SDS011;6256;63.808;20.336;2023-08-17T07:11:55;1.20;;;1.10;;
12383;SDS011;6256;63.808;20.336;2023-08-17T07:14:21;3.88;;;1.20;;
12383;SDS011;6256;63.808;20.336;2023-08-17T07:16:47;1.60;;;1.13;;
12383;SDS011;6256;63.808;20.336;2023-08-17T07:19:12;1.00;;;0.95;;
12383;SDS011;6256;63.808;20.336;2023-08-17T07:21:38;0.77;;;0.77;;
12383;SDS011;6256;63.808;20.336;2023-08-17T07:24:11;1.95;;;0.95;;
12383;SDS011;6256;63.808;20.336;2023-08-17T07:26:38;1.70;;;1.02;;
12383;SDS011;6256;63.808;20.336;2023-08-17T07:29:04;0.90;;;0.90;;
12383;SDS011;6256;63.808;20.336;2023-08-17T07:31:30;1.45;;;1.08;;
12383;SDS011;6256;63.808;20.336;2023-08-17T07:33:56;1.45;;;1.02;;
12383;SDS011;6256;63.808;20.336;2023-08-17T07:36:21;1.27;;;1.00;;
12383;SDS011;6256;63.808;20.336;2023-08-17T07:38:50;1.73;;;0.80;;
12383;SDS011;6256;63.808;20.336;2023-08-17T07:41:15;1.83;;;0.90;;
12383;SDS011;6256;63.808;20.336;2023-08-17T07:43:41;2.28;;;1.25;;
12383;SDS011;6256;63.808;20.336;2023-08-17T07:46:07;4.00;;;0.98;;
12383;SDS011;6256;63.808;20.336;2023-08-17T07:48:32;0.90;;;0.90;;
12383;SDS011;6256;63.808;20.336;2023-08-17T07:50:59;1.10;;;1.02;;
12383;SDS011;6256;63.808;20.336;2023-08-17T07:53:25;1.20;;;1.10;;
12383;SDS011;6256;63.808;20.336;2023-08-17T07:55:50;1.20;;;1.10;;
12383;SDS011;6256;63.808;20.336;2023-08-17T07:58:16;0.80;;;0.80;;
12383;SDS011;6256;63.808;20.336;2023-08-17T08:00:42;0.75;;;0.75;;
12383;SDS011;6256;63.808;20.336;2023-08-17T08:03:07;1.67;;;1.08;;
12383;SDS011;6256;63.808;20.336;2023-08-17T08:05:34;0.70;;;0.70;;
12383;SDS011;6256;63.808;20.336;2023-08-17T08:08:00;1.60;;;0.77;;
12383;SDS011;6256;63.808;20.336;2023-08-17T08:10:26;0.80;;;0.80;;
12383;SDS011;6256;63.808;20.336;2023-08-17T08:12:53;2.35;;;1.10;;
12383;SDS011;6256;63.808;20.336;2023-08-17T08:15:20;1.58;;;0.98;;
12383;SDS011;6256;63.808;20.336;2023-08-17T08:17:45;1.25;;;1.02;;
12383;SDS011;6256;63.808;20.336;2023-08-17T08:20:11;0.70;;;0.70;;
12383;SDS011;6256;63.808;20.336;2023-08-17T08:22:36;0.73;;;0.70;;
12383;SDS011;6256;63.808;20.336;2023-08-17T08:25:02;0.68;;;0.68;;
12383;SDS011;6256;63.808;20.336;2023-08-17T08:27:28;0.70;;;0.70;;
12383;SDS011;6256;63.808;20.336;2023-08-17T08:29:54;0.93;;;0.88;;
12383;SDS011;6256;63.808;20.336;2023-08-17T08:32:20;0.70;;;0.70;;
12383;SDS011;6256;63.808;20.336;2023-08-17T08:34:45;0.85;;;0.70;;
12383;SDS011;6256;63.808;20.336;2023-08-17T08:37:11;0.90;;;0.70;;
12383;SDS011;6256;63.808;20.336;2023-08-17T08:39:53;0.80;;;0.80;;
12383;SDS011;6256;63.808;20.336;2023-08-17T08:42:20;1.65;;;0.90;;
12383;SDS011;6256;63.808;20.336;2023-08-17T08:44:47;1.88;;;0.60;;
12383;SDS011;6256;63.808;20.336;2023-08-17T08:47:14;0.47;;;0.47;;
12383;SDS011;6256;63.808;20.336;2023-08-17T08:52:50;0.82;;;0.55;;
12383;SDS011;6256;63.808;20.336;2023-08-17T08:55:25;0.82;;;0.60;;
12383;SDS011;6256;63.808;20.336;2023-08-17T08:57:54;0.88;;;0.88;;
12383;SDS011;6256;63.808;20.336;2023-08-17T09:00:20;0.65;;;0.65;;
12383;SDS011;6256;63.808;20.336;2023-08-17T09:02:47;0.45;;;0.45;;
12383;SDS011;6256;63.808;20.336;2023-08-17T09:05:14;0.68;;;0.68;;
12383;SDS011;6256;63.808;20.336;2023-08-17T09:07:40;0.55;;;0.55;;
12383;SDS011;6256;63.808;20.336;2023-08-17T09:10:08;0.85;;;0.70;;
12383;SDS011;6256;63.808;20.336;2023-08-17T09:12:34;0.63;;;0.60;;
12383;SDS011;6256;63.808;20.336;2023-08-17T09:15:00;1.00;;;0.50;;
12383;SDS011;6256;63.808;20.336;2023-08-17T09:17:26;0.70;;;0.70;;
12383;SDS011;6256;63.808;20.336;2023-08-17T09:19:52;0.50;;;0.50;;
12383;SDS011;6256;63.808;20.336;2023-08-17T09:22:22;1.90;;;0.65;;
12383;SDS011;6256;63.808;20.336;2023-08-17T09:25:01;0.57;;;0.57;;
12383;SDS011;6256;63.808;20.336;2023-08-17T09:27:27;1.38;;;0.70;;
12383;SDS011;6256;63.808;20.336;2023-08-17T09:30:00;1.25;;;0.57;;
12383;SDS011;6256;63.808;20.336;2023-08-17T09:32:30;0.50;;;0.50;;
12383;SDS011;6256;63.808;20.336;2023-08-17T09:34:56;1.83;;;0.47;;
12383;SDS011;6256;63.808;20.336;2023-08-17T09:37:22;0.43;;;0.43;;
12383;SDS011;6256;63.808;20.336;2023-08-17T09:39:49;0.98;;;0.60;;
12383;SDS011;6256;63.808;20.336;2023-08-17T09:42:16;0.60;;;0.60;;
12383;SDS011;6256;63.808;20.336;2023-08-17T09:44:43;0.50;;;0.50;;
12383;SDS011;6256;63.808;20.336;2023-08-17T09:47:09;0.50;;;0.50;;
12383;SDS011;6256;63.808;20.336;2023-08-17T09:49:35;0.35;;;0.35;;
12383;SDS011;6256;63.808;20.336;2023-08-17T09:52:01;0.50;;;0.50;;
12383;SDS011;6256;63.808;20.336;2023-08-17T09:54:27;0.50;;;0.50;;
12383;SDS011;6256;63.808;20.336;2023-08-17T09:56:56;0.40;;;0.40;;
12383;SDS011;6256;63.808;20.336;2023-08-17T09:59:23;0.30;;;0.30;;
12383;SDS011;6256;63.808;20.336;2023-08-17T10:01:50;0.57;;;0.57;;
12383;SDS011;6256;63.808;20.336;2023-08-17T10:04:20;0.73;;;0.70;;
12383;SDS011;6256;63.808;20.336;2023-08-17T10:06:51;0.65;;;0.47;;
12383;SDS011;6256;63.808;20.336;2023-08-17T10:09:23;3.70;;;0.88;;
12383;SDS011;6256;63.808;20.336;2023-08-17T10:11:54;0.90;;;0.80;;
12383;SDS011;6256;63.808;20.336;2023-08-17T10:14:28;0.95;;;0.80;;
12383;SDS011;6256;63.808;20.336;2023-08-17T10:17:03;0.60;;;0.60;;
12383;SDS011;6256;63.808;20.336;2023-08-17T10:22:20;0.63;;;0.63;;
12383;SDS011;6256;63.808;20.336;2023-08-17T10:24:48;0.85;;;0.68;;
12383;SDS011;6256;63.808;20.336;2023-08-17T10:27:15;0.68;;;0.68;;
12383;SDS011;6256;63.808;20.336;2023-08-17T10:29:42;1.65;;;0.80;;
12383;SDS011;6256;63.808;20.336;2023-08-17T10:32:09;0.63;;;0.63;;
12383;SDS011;6256;63.808;20.336;2023-08-17T10:34:36;0.77;;;0.77;;
12383;SDS011;6256;63.808;20.336;2023-08-17T10:37:03;1.05;;;0.70;;
12383;SDS011;6256;63.808;20.336;2023-08-17T10:39:30;0.70;;;0.68;;
12383;SDS011;6256;63.808;20.336;2023-08-17T10:41:57;0.90;;;0.90;;
12383;SDS011;6256;63.808;20.336;2023-08-17T10:47:22;1.38;;;0.70;;
12383;SDS011;6256;63.808;20.336;2023-08-17T10:49:55;0.60;;;0.60;;
12383;SDS011;6256;63.808;20.336;2023-08-17T10:52:32;0.77;;;0.77;;
12383;SDS011;6256;63.808;20.336;2023-08-17T10:55:06;2.20;;;0.85;;
12383;SDS011;6256;63.808;20.336;2023-08-17T10:57:38;0.60;;;0.60;;
12383;SDS011;6256;63.808;20.336;2023-08-17T11:02:54;1.10;;;0.80;;
12383;SDS011;6256;63.808;20.336;2023-08-17T11:08:23;0.60;;;0.60;;
12383;SDS011;6256;63.808;20.336;2023-08-17T11:11:06;1.15;;;0.82;;
12383;SDS011;6256;63.808;20.336;2023-08-17T11:13:36;0.60;;;0.60;;
12383;SDS011;6256;63.808;20.336;2023-08-17T11:16:03;1.98;;;0.70;;
12383;SDS011;6256;63.808;20.336;2023-08-17T11:18:30;1.70;;;0.70;;
12383;SDS011;6256;63.808;20.336;2023-08-17T11:20:57;0.60;;;0.60;;
12383;SDS011;6256;63.808;20.336;2023-08-17T11:23:28;0.70;;;0.70;;
12383;SDS011;6256;63.808;20.336;2023-08-17T11:25:55;0.60;;;0.50;;
12383;SDS011;6256;63.808;20.336;2023-08-17T11:28:21;0.70;;;0.60;;
12383;SDS011;6256;63.808;20.336;2023-08-17T11:31:08;1.10;;;0.55;;
12383;SDS011;6256;63.808;20.336;2023-08-17T11:33:37;0.50;;;0.50;;
12383;SDS011;6256;63.808;20.336;2023-08-17T11:36:04;0.50;;;0.50;;
12383;SDS011;6256;63.808;20.336;2023-08-17T11:38:32;0.60;;;0.60;;
12383;SDS011;6256;63.808;20.336;2023-08-17T11:40:59;0.75;;;0.50;;
12383;SDS011;6256;63.808;20.336;2023-08-17T11:43:27;3.13;;;1.05;;
12383;SDS011;6256;63.808;20.336;2023-08-17T11:45:54;0.65;;;0.65;;
12383;SDS011;6256;63.808;20.336;2023-08-17T11:48:20;0.60;;;0.60;;
12383;SDS011;6256;63.808;20.336;2023-08-17T11:50:46;0.60;;;0.60;;
12383;SDS011;6256;63.808;20.336;2023-08-17T11:53:13;1.67;;;0.60;;
12383;SDS011;6256;63.808;20.336;2023-08-17T11:55:40;0.65;;;0.65;;
12383;SDS011;6256;63.808;20.336;2023-08-17T11:58:06;0.70;;;0.70;;
12383;SDS011;6256;63.808;20.336;2023-08-17T12:00:36;1.17;;;0.60;;
12383;SDS011;6256;63.808;20.336;2023-08-17T12:03:06;1.15;;;0.68;;
12383;SDS011;6256;63.808;20.336;2023-08-17T12:05:32;0.60;;;0.60;;
12383;SDS011;6256;63.808;20.336;2023-08-17T12:07:59;0.50;;;0.50;;
12383;SDS011;6256;63.808;20.336;2023-08-17T12:10:30;1.65;;;0.75;;
12383;SDS011;6256;63.808;20.336;2023-08-17T12:13:00;1.85;;;0.57;;
12383;SDS011;6256;63.808;20.336;2023-08-17T12:15:35;0.98;;;0.80;;
12383;SDS011;6256;63.808;20.336;2023-08-17T12:18:04;0.45;;;0.45;;
12383;SDS011;6256;63.808;20.336;2023-08-17T12:20:31;0.50;;;0.50;;
12383;SDS011;6256;63.808;20.336;2023-08-17T12:23:00;0.57;;;0.57;;
12383;SDS011;6256;63.808;20.336;2023-08-17T12:25:27;0.60;;;0.60;;
12383;SDS011;6256;63.808;20.336;2023-08-17T12:27:57;1.58;;;0.70;;
12383;SDS011;6256;63.808;20.336;2023-08-17T12:30:28;1.10;;;0.70;;
12383;SDS011;6256;63.808;20.336;2023-08-17T12:32:57;0.57;;;0.50;;
12383;SDS011;6256;63.808;20.336;2023-08-17T12:35:24;0.70;;;0.55;;
12383;SDS011;6256;63.808;20.336;2023-08-17T12:37:55;0.70;;;0.70;;
12383;SDS011;6256;63.808;20.336;2023-08-17T12:40:21;0.70;;;0.45;;
12383;SDS011;6256;63.808;20.336;2023-08-17T12:42:47;0.45;;;0.45;;
12383;SDS011;6256;63.808;20.336;2023-08-17T12:45:13;0.55;;;0.47;;
12383;SDS011;6256;63.808;20.336;2023-08-17T12:47:40;0.40;;;0.30;;
12383;SDS011;6256;63.808;20.336;2023-08-17T12:50:06;0.40;;;0.40;;
12383;SDS011;6256;63.808;20.336;2023-08-17T12:52:32;0.20;;;0.20;;
12383;SDS011;6256;63.808;20.336;2023-08-17T12:54:58;0.38;;;0.38;;
12383;SDS011;6256;63.808;20.336;2023-08-17T12:57:24;0.32;;;0.32;;
12383;SDS011;6256;63.808;20.336;2023-08-17T12:59:50;0.40;;;0.35;;
12383;SDS011;6256;63.808;20.336;2023-08-17T13:02:15;1.58;;;0.60;;
12383;SDS011;6256;63.808;20.336;2023-08-17T13:04:41;0.60;;;0.55;;
12383;SDS011;6256;63.808;20.336;2023-08-17T13:07:07;0.80;;;0.50;;
12383;SDS011;6256;63.808;20.336;2023-08-17T13:09:33;0.50;;;0.50;;
12383;SDS011;6256;63.808;20.336;2023-08-17T13:11:58;0.60;;;0.55;;
12383;SDS011;6256;63.808;20.336;2023-08-17T13:14:25;0.55;;;0.55;;
12383;SDS011;6256;63.808;20.336;2023-08-17T13:16:51;0.50;;;0.50;;
12383;SDS011;6256;63.808;20.336;2023-08-17T13:19:17;0.98;;;0.50;;
12383;SDS011;6256;63.808;20.336;2023-08-17T13:21:43;0.40;;;0.40;;
12383;SDS011;6256;63.808;20.336;2023-08-17T13:24:09;0.50;;;0.50;;
12383;SDS011;6256;63.808;20.336;2023-08-17T13:26:35;0.93;;;0.70;;
12383;SDS011;6256;63.808;20.336;2023-08-17T13:29:00;2.15;;;0.63;;
12383;SDS011;6256;63.808;20.336;2023-08-17T13:31:26;0.70;;;0.55;;
12383;SDS011;6256;63.808;20.336;2023-08-17T13:33:52;0.68;;;0.68;;
12383;SDS011;6256;63.808;20.336;2023-08-17T13:36:18;0.75;;;0.75;;
12383;SDS011;6256;63.808;20.336;2023-08-17T13:38:44;1.73;;;1.02;;
12383;SDS011;6256;63.808;20.336;2023-08-17T13:41:10;1.40;;;0.80;;
12383;SDS011;6256;63.808;20.336;2023-08-17T13:43:36;0.68;;;0.68;;
12383;SDS011;6256;63.808;20.336;2023-08-17T13:46:02;1.45;;;0.55;;
12383;SDS011;6256;63.808;20.336;2023-08-17T13:48:27;1.08;;;0.60;;
12383;SDS011;6256;63.808;20.336;2023-08-17T13:50:56;0.70;;;0.70;;
12383;SDS011;6256;63.808;20.336;2023-08-17T13:53:21;0.55;;;0.55;;
12383;SDS011;6256;63.808;20.336;2023-08-17T13:55:47;1.00;;;0.70;;
12383;SDS011;6256;63.808;20.336;2023-08-17T13:58:13;1.10;;;0.93;;
12383;SDS011;6256;63.808;20.336;2023-08-17T14:00:40;0.75;;;0.70;;
12383;SDS011;6256;63.808;20.336;2023-08-17T14:03:06;1.17;;;0.80;;
12383;SDS011;6256;63.808;20.336;2023-08-17T14:05:32;0.80;;;0.80;;
12383;SDS011;6256;63.808;20.336;2023-08-17T14:07:58;1.33;;;0.88;;
12383;SDS011;6256;63.808;20.336;2023-08-17T14:10:24;1.63;;;0.80;;
12383;SDS011;6256;63.808;20.336;2023-08-17T14:12:49;0.80;;;0.80;;
12383;SDS011;6256;63.808;20.336;2023-08-17T14:15:15;2.90;;;0.98;;
12383;SDS011;6256;63.808;20.336;2023-08-17T14:17:41;0.65;;;0.65;;
12383;SDS011;6256;63.808;20.336;2023-08-17T14:20:07;0.88;;;0.75;;
12383;SDS011;6256;63.808;20.336;2023-08-17T14:22:33;0.70;;;0.70;;
12383;SDS011;6256;63.808;20.336;2023-08-17T14:24:59;0.70;;;0.70;;
12383;SDS011;6256;63.808;20.336;2023-08-17T14:27:25;1.40;;;0.70;;
12383;SDS011;6256;63.808;20.336;2023-08-17T14:29:50;0.82;;;0.70;;
12383;SDS011;6256;63.808;20.336;2023-08-17T14:32:16;0.80;;;0.80;;
12383;SDS011;6256;63.808;20.336;2023-08-17T14:34:42;0.70;;;0.70;;
12383;SDS011;6256;63.808;20.336;2023-08-17T14:37:07;1.75;;;0.70;;
12383;SDS011;6256;63.808;20.336;2023-08-17T14:39:33;2.13;;;0.90;;
12383;SDS011;6256;63.808;20.336;2023-08-17T14:41:59;0.68;;;0.65;;
12383;SDS011;6256;63.808;20.336;2023-08-17T14:44:25;1.48;;;0.80;;
12383;SDS011;6256;63.808;20.336;2023-08-17T14:46:50;1.33;;;0.60;;
12383;SDS011;6256;63.808;20.336;2023-08-17T14:49:16;0.65;;;0.65;;
12383;SDS011;6256;63.808;20.336;2023-08-17T14:51:42;1.40;;;0.63;;
12383;SDS011;6256;63.808;20.336;2023-08-17T14:54:09;2.10;;;0.80;;
12383;SDS011;6256;63.808;20.336;2023-08-17T14:56:35;1.58;;;0.85;;
12383;SDS011;6256;63.808;20.336;2023-08-17T14:59:01;0.80;;;0.80;;
12383;SDS011;6256;63.808;20.336;2023-08-17T15:01:27;1.02;;;0.63;;
12383;SDS011;6256;63.808;20.336;2023-08-17T15:03:56;0.70;;;0.70;;